sensor_id;sensor_type;location;lat;lon;timestamp;temperature;humidity
6260;DHT22;3163;51.516;4.000;2022-12-18T00:01:42;-0.60;99.90
6260;DHT22;3163;51.516;4.000;2022-12-18T00:04:16;0.80;99.90
6260;DHT22;3163;51.516;4.000;2022-12-18T00:06:44;1.70;99.90
6260;DHT22;3163;51.516;4.000;2022-12-18T00:09:10;0.00;99.90
6260;DHT22;3163;51.516;4.000;2022-12-18T00:11:35;0.90;99.90
6260;DHT22;3163;51.516;4.000;2022-12-18T00:14:01;0.10;99.90
6260;DHT22;3163;51.516;4.000;2022-12-18T00:16:27;0.80;99.90
6260;DHT22;3163;51.516;4.000;2022-12-18T00:18:55;0.40;99.90
6260;DHT22;3163;51.516;4.000;2022-12-18T00:21:21;0.50;99.90
6260;DHT22;3163;51.516;4.000;2022-12-18T00:23:48;1.70;99.90
6260;DHT22;3163;51.516;4.000;2022-12-18T00:26:17;1.10;99.90
6260;DHT22;3163;51.516;4.000;2022-12-18T00:28:43;1.50;99.90
6260;DHT22;3163;51.516;4.000;2022-12-18T00:31:12;1.20;99.90
6260;DHT22;3163;51.516;4.000;2022-12-18T00:33:38;-0.90;99.90
6260;DHT22;3163;51.516;4.000;2022-12-18T00:36:12;0.10;99.90
6260;DHT22;3163;51.516;4.000;2022-12-18T00:38:38;-0.30;99.90
6260;DHT22;3163;51.516;4.000;2022-12-18T00:41:04;0.00;99.90
6260;DHT22;3163;51.516;4.000;2022-12-18T00:43:33;1.10;99.90
6260;DHT22;3163;51.516;4.000;2022-12-18T00:45:59;0.70;99.90
6260;DHT22;3163;51.516;4.000;2022-12-18T00:48:24;0.10;99.90
6260;DHT22;3163;51.516;4.000;2022-12-18T00:50:50;1.10;99.90
6260;DHT22;3163;51.516;4.000;2022-12-18T00:53:17;1.10;99.90
6260;DHT22;3163;51.516;4.000;2022-12-18T00:55:43;1.30;99.90
6260;DHT22;3163;51.516;4.000;2022-12-18T00:58:09;0.80;99.90
6260;DHT22;3163;51.516;4.000;2022-12-18T01:00:35;0.20;99.90
6260;DHT22;3163;51.516;4.000;2022-12-18T01:03:01;0.40;99.90
6260;DHT22;3163;51.516;4.000;2022-12-18T01:05:27;-0.10;99.90
6260;DHT22;3163;51.516;4.000;2022-12-18T01:07:53;-0.10;99.90
6260;DHT22;3163;51.516;4.000;2022-12-18T01:10:19;0.30;99.90
6260;DHT22;3163;51.516;4.000;2022-12-18T01:12:45;0.20;99.90
6260;DHT22;3163;51.516;4.000;2022-12-18T01:15:12;0.80;99.90
6260;DHT22;3163;51.516;4.000;2022-12-18T01:17:38;0.90;99.90
6260;DHT22;3163;51.516;4.000;2022-12-18T01:20:05;1.20;99.90
6260;DHT22;3163;51.516;4.000;2022-12-18T01:22:34;1.20;99.90
6260;DHT22;3163;51.516;4.000;2022-12-18T01:24:59;0.70;99.90
6260;DHT22;3163;51.516;4.000;2022-12-18T01:27:25;0.40;99.90
6260;DHT22;3163;51.516;4.000;2022-12-18T01:29:51;0.60;99.90
6260;DHT22;3163;51.516;4.000;2022-12-18T01:32:16;0.10;99.90
6260;DHT22;3163;51.516;4.000;2022-12-18T01:34:42;-0.40;99.90
6260;DHT22;3163;51.516;4.000;2022-12-18T01:37:08;-0.60;99.90
6260;DHT22;3163;51.516;4.000;2022-12-18T01:39:33;-0.40;99.90
6260;DHT22;3163;51.516;4.000;2022-12-18T01:42:00;-0.40;99.90
6260;DHT22;3163;51.516;4.000;2022-12-18T01:50:13;0.70;99.90
6260;DHT22;3163;51.516;4.000;2022-12-18T01:52:42;0.60;99.90
6260;DHT22;3163;51.516;4.000;2022-12-18T01:55:09;0.90;99.90
6260;DHT22;3163;51.516;4.000;2022-12-18T01:57:36;1.10;99.90
6260;DHT22;3163;51.516;4.000;2022-12-18T02:00:07;1.20;99.90
6260;DHT22;3163;51.516;4.000;2022-12-18T02:02:34;1.40;99.90
6260;DHT22;3163;51.516;4.000;2022-12-18T02:05:00;1.20;99.90
6260;DHT22;3163;51.516;4.000;2022-12-18T02:10:43;1.60;99.90
6260;DHT22;3163;51.516;4.000;2022-12-18T02:13:45;1.70;99.90
6260;DHT22;3163;51.516;4.000;2022-12-18T02:18:49;0.30;99.90
6260;DHT22;3163;51.516;4.000;2022-12-18T02:21:31;0.00;99.90
6260;DHT22;3163;51.516;4.000;2022-12-18T02:26:58;0.10;99.90
6260;DHT22;3163;51.516;4.000;2022-12-18T02:29:48;0.90;99.90
6260;DHT22;3163;51.516;4.000;2022-12-18T02:32:18;0.30;99.90
6260;DHT22;3163;51.516;4.000;2022-12-18T02:34:46;0.30;99.90
6260;DHT22;3163;51.516;4.000;2022-12-18T02:37:14;0.30;99.90
6260;DHT22;3163;51.516;4.000;2022-12-18T02:39:42;0.60;99.90
6260;DHT22;3163;51.516;4.000;2022-12-18T02:42:10;0.30;99.90
6260;DHT22;3163;51.516;4.000;2022-12-18T02:44:46;0.80;99.90
6260;DHT22;3163;51.516;4.000;2022-12-18T02:47:13;0.20;99.90
6260;DHT22;3163;51.516;4.000;2022-12-18T03:00:37;-0.90;99.90
6260;DHT22;3163;51.516;4.000;2022-12-18T03:03:19;-1.00;99.90
6260;DHT22;3163;51.516;4.000;2022-12-18T03:06:00;-0.80;99.90
6260;DHT22;3163;51.516;4.000;2022-12-18T03:08:29;-0.30;99.90
6260;DHT22;3163;51.516;4.000;2022-12-18T03:11:00;0.60;99.90
6260;DHT22;3163;51.516;4.000;2022-12-18T03:13:37;1.40;99.90
6260;DHT22;3163;51.516;4.000;2022-12-18T03:16:06;1.40;99.90
6260;DHT22;3163;51.516;4.000;2022-12-18T03:18:38;0.10;99.90
6260;DHT22;3163;51.516;4.000;2022-12-18T03:21:06;0.40;99.90
6260;DHT22;3163;51.516;4.000;2022-12-18T03:23:44;0.80;99.90
6260;DHT22;3163;51.516;4.000;2022-12-18T03:26:16;0.50;99.90
6260;DHT22;3163;51.516;4.000;2022-12-18T03:28:49;0.10;99.90
6260;DHT22;3163;51.516;4.000;2022-12-18T03:31:16;0.50;99.90
6260;DHT22;3163;51.516;4.000;2022-12-18T03:33:51;0.20;99.90
6260;DHT22;3163;51.516;4.000;2022-12-18T03:36:18;0.70;99.90
6260;DHT22;3163;51.516;4.000;2022-12-18T03:38:43;0.80;99.90
6260;DHT22;3163;51.516;4.000;2022-12-18T03:41:32;1.10;99.90
6260;DHT22;3163;51.516;4.000;2022-12-18T03:44:21;-0.20;99.90
6260;DHT22;3163;51.516;4.000;2022-12-18T03:49:34;0.80;99.90
6260;DHT22;3163;51.516;4.000;2022-12-18T03:52:12;0.80;99.90
6260;DHT22;3163;51.516;4.000;2022-12-18T03:54:39;0.60;99.90
6260;DHT22;3163;51.516;4.000;2022-12-18T03:57:14;0.90;99.90
6260;DHT22;3163;51.516;4.000;2022-12-18T03:59:43;0.10;99.90
6260;DHT22;3163;51.516;4.000;2022-12-18T04:02:09;0.50;99.90
6260;DHT22;3163;51.516;4.000;2022-12-18T04:04:38;-0.30;99.90
6260;DHT22;3163;51.516;4.000;2022-12-18T04:07:05;-0.10;99.90
6260;DHT22;3163;51.516;4.000;2022-12-18T04:09:33;0.10;99.90
6260;DHT22;3163;51.516;4.000;2022-12-18T04:11:59;-0.20;99.90
6260;DHT22;3163;51.516;4.000;2022-12-18T04:14:24;-0.20;99.90
6260;DHT22;3163;51.516;4.000;2022-12-18T04:16:50;0.60;99.90
6260;DHT22;3163;51.516;4.000;2022-12-18T04:19:16;0.50;99.90
6260;DHT22;3163;51.516;4.000;2022-12-18T04:21:41;0.00;99.90
6260;DHT22;3163;51.516;4.000;2022-12-18T04:24:07;0.20;99.90
6260;DHT22;3163;51.516;4.000;2022-12-18T04:26:34;-1.10;99.90
6260;DHT22;3163;51.516;4.000;2022-12-18T04:28:59;-0.90;99.90
6260;DHT22;3163;51.516;4.000;2022-12-18T04:31:25;-0.70;99.90
6260;DHT22;3163;51.516;4.000;2022-12-18T04:33:51;-0.60;99.90
6260;DHT22;3163;51.516;4.000;2022-12-18T04:36:17;-0.50;99.90
6260;DHT22;3163;51.516;4.000;2022-12-18T04:38:42;-0.10;99.90
6260;DHT22;3163;51.516;4.000;2022-12-18T04:41:08;-0.20;99.90
6260;DHT22;3163;51.516;4.000;2022-12-18T04:43:34;0.20;99.90
6260;DHT22;3163;51.516;4.000;2022-12-18T04:46:04;0.10;99.90
6260;DHT22;3163;51.516;4.000;2022-12-18T04:48:29;0.20;99.90
6260;DHT22;3163;51.516;4.000;2022-12-18T04:50:55;0.10;99.90
6260;DHT22;3163;51.516;4.000;2022-12-18T04:53:21;-0.10;99.90
6260;DHT22;3163;51.516;4.000;2022-12-18T04:55:46;-0.40;99.90
6260;DHT22;3163;51.516;4.000;2022-12-18T04:58:12;-0.20;99.90
6260;DHT22;3163;51.516;4.000;2022-12-18T05:00:37;0.50;99.90
6260;DHT22;3163;51.516;4.000;2022-12-18T05:03:03;0.00;99.90
6260;DHT22;3163;51.516;4.000;2022-12-18T05:05:29;0.10;99.90
6260;DHT22;3163;51.516;4.000;2022-12-18T05:07:54;0.40;99.90
6260;DHT22;3163;51.516;4.000;2022-12-18T05:10:20;1.30;99.90
6260;DHT22;3163;51.516;4.000;2022-12-18T05:12:45;1.30;99.90
6260;DHT22;3163;51.516;4.000;2022-12-18T05:15:24;1.20;99.90
6260;DHT22;3163;51.516;4.000;2022-12-18T05:17:50;1.40;99.90
6260;DHT22;3163;51.516;4.000;2022-12-18T05:20:15;1.40;99.90
6260;DHT22;3163;51.516;4.000;2022-12-18T05:22:41;1.70;99.90
6260;DHT22;3163;51.516;4.000;2022-12-18T05:25:07;1.90;99.90
6260;DHT22;3163;51.516;4.000;2022-12-18T05:27:32;1.20;99.90
6260;DHT22;3163;51.516;4.000;2022-12-18T05:29:58;1.30;99.90
6260;DHT22;3163;51.516;4.000;2022-12-18T05:32:24;0.40;99.90
6260;DHT22;3163;51.516;4.000;2022-12-18T05:34:49;0.90;99.90
6260;DHT22;3163;51.516;4.000;2022-12-18T05:37:15;0.80;99.90
6260;DHT22;3163;51.516;4.000;2022-12-18T05:39:40;0.80;99.90
6260;DHT22;3163;51.516;4.000;2022-12-18T05:42:06;0.80;99.90
6260;DHT22;3163;51.516;4.000;2022-12-18T05:44:32;0.80;99.90
6260;DHT22;3163;51.516;4.000;2022-12-18T05:46:57;0.80;99.90
6260;DHT22;3163;51.516;4.000;2022-12-18T05:49:23;0.40;99.90
6260;DHT22;3163;51.516;4.000;2022-12-18T05:51:48;0.50;99.90
6260;DHT22;3163;51.516;4.000;2022-12-18T05:54:14;1.00;99.90
6260;DHT22;3163;51.516;4.000;2022-12-18T05:56:39;0.90;99.90
6260;DHT22;3163;51.516;4.000;2022-12-18T05:59:05;0.90;99.90
6260;DHT22;3163;51.516;4.000;2022-12-18T06:01:31;0.80;99.90
6260;DHT22;3163;51.516;4.000;2022-12-18T06:03:56;1.20;99.90
6260;DHT22;3163;51.516;4.000;2022-12-18T06:06:24;1.40;99.90
6260;DHT22;3163;51.516;4.000;2022-12-18T06:08:50;1.60;99.90
6260;DHT22;3163;51.516;4.000;2022-12-18T06:11:19;1.50;99.90
6260;DHT22;3163;51.516;4.000;2022-12-18T06:13:45;1.10;99.90
6260;DHT22;3163;51.516;4.000;2022-12-18T06:16:11;1.40;99.90
6260;DHT22;3163;51.516;4.000;2022-12-18T06:18:37;1.00;99.90
6260;DHT22;3163;51.516;4.000;2022-12-18T06:21:03;0.20;99.90
6260;DHT22;3163;51.516;4.000;2022-12-18T06:23:29;0.50;99.90
6260;DHT22;3163;51.516;4.000;2022-12-18T06:25:55;0.90;99.90
6260;DHT22;3163;51.516;4.000;2022-12-18T06:28:21;0.60;99.90
6260;DHT22;3163;51.516;4.000;2022-12-18T06:30:47;0.20;99.90
6260;DHT22;3163;51.516;4.000;2022-12-18T06:33:14;-0.30;99.90
6260;DHT22;3163;51.516;4.000;2022-12-18T06:35:40;-0.40;99.90
6260;DHT22;3163;51.516;4.000;2022-12-18T06:38:06;-0.20;99.90
6260;DHT22;3163;51.516;4.000;2022-12-18T06:40:31;-0.40;99.90
6260;DHT22;3163;51.516;4.000;2022-12-18T06:42:57;-0.60;99.90
6260;DHT22;3163;51.516;4.000;2022-12-18T06:45:23;0.00;99.90
6260;DHT22;3163;51.516;4.000;2022-12-18T06:47:49;-0.10;99.90
6260;DHT22;3163;51.516;4.000;2022-12-18T06:50:15;-0.20;99.90
6260;DHT22;3163;51.516;4.000;2022-12-18T06:52:41;-0.80;99.90
6260;DHT22;3163;51.516;4.000;2022-12-18T06:55:09;-0.60;99.90
6260;DHT22;3163;51.516;4.000;2022-12-18T06:57:35;-0.50;99.90
6260;DHT22;3163;51.516;4.000;2022-12-18T07:00:02;-0.40;99.90
6260;DHT22;3163;51.516;4.000;2022-12-18T07:02:28;-0.10;99.90
6260;DHT22;3163;51.516;4.000;2022-12-18T07:04:53;-0.30;99.90
6260;DHT22;3163;51.516;4.000;2022-12-18T07:07:19;0.60;99.90
6260;DHT22;3163;51.516;4.000;2022-12-18T07:09:44;0.50;99.90
6260;DHT22;3163;51.516;4.000;2022-12-18T07:12:10;0.20;99.90
6260;DHT22;3163;51.516;4.000;2022-12-18T07:14:36;0.10;99.90
6260;DHT22;3163;51.516;4.000;2022-12-18T07:17:02;-0.20;99.90
6260;DHT22;3163;51.516;4.000;2022-12-18T07:19:27;-0.20;99.90
6260;DHT22;3163;51.516;4.000;2022-12-18T07:21:53;-0.50;99.90
6260;DHT22;3163;51.516;4.000;2022-12-18T07:24:20;-0.30;99.90
6260;DHT22;3163;51.516;4.000;2022-12-18T07:26:46;-0.30;99.90
6260;DHT22;3163;51.516;4.000;2022-12-18T07:29:12;-0.60;99.90
6260;DHT22;3163;51.516;4.000;2022-12-18T07:31:38;-0.20;99.90
6260;DHT22;3163;51.516;4.000;2022-12-18T07:34:04;0.00;99.90
6260;DHT22;3163;51.516;4.000;2022-12-18T07:36:29;0.40;99.90
6260;DHT22;3163;51.516;4.000;2022-12-18T07:38:55;0.60;99.90
6260;DHT22;3163;51.516;4.000;2022-12-18T07:41:21;-0.10;99.90
6260;DHT22;3163;51.516;4.000;2022-12-18T07:43:47;0.20;99.90
6260;DHT22;3163;51.516;4.000;2022-12-18T07:46:14;0.20;99.90
6260;DHT22;3163;51.516;4.000;2022-12-18T07:48:42;0.00;99.90
6260;DHT22;3163;51.516;4.000;2022-12-18T07:51:08;0.40;99.90
6260;DHT22;3163;51.516;4.000;2022-12-18T07:53:35;0.00;99.90
6260;DHT22;3163;51.516;4.000;2022-12-18T07:56:03;0.10;99.90
6260;DHT22;3163;51.516;4.000;2022-12-18T07:58:30;-0.20;99.90
6260;DHT22;3163;51.516;4.000;2022-12-18T08:01:22;-0.30;99.90
6260;DHT22;3163;51.516;4.000;2022-12-18T08:03:48;0.00;99.90
6260;DHT22;3163;51.516;4.000;2022-12-18T08:06:13;0.00;99.90
6260;DHT22;3163;51.516;4.000;2022-12-18T08:08:39;-0.60;99.90
6260;DHT22;3163;51.516;4.000;2022-12-18T08:11:06;0.50;99.90
6260;DHT22;3163;51.516;4.000;2022-12-18T08:13:32;0.10;99.90
6260;DHT22;3163;51.516;4.000;2022-12-18T08:15:59;1.30;99.90
6260;DHT22;3163;51.516;4.000;2022-12-18T08:18:25;1.10;99.90
6260;DHT22;3163;51.516;4.000;2022-12-18T08:20:51;0.30;99.90
6260;DHT22;3163;51.516;4.000;2022-12-18T08:23:17;1.60;99.90
6260;DHT22;3163;51.516;4.000;2022-12-18T08:25:43;1.10;99.90
6260;DHT22;3163;51.516;4.000;2022-12-18T08:28:09;1.30;99.90
6260;DHT22;3163;51.516;4.000;2022-12-18T08:30:35;0.60;99.90
6260;DHT22;3163;51.516;4.000;2022-12-18T08:33:01;0.20;99.90
6260;DHT22;3163;51.516;4.000;2022-12-18T08:35:27;1.20;99.90
6260;DHT22;3163;51.516;4.000;2022-12-18T08:37:53;1.40;99.90
6260;DHT22;3163;51.516;4.000;2022-12-18T08:40:19;1.80;99.90
6260;DHT22;3163;51.516;4.000;2022-12-18T08:42:44;1.10;99.90
6260;DHT22;3163;51.516;4.000;2022-12-18T08:45:28;0.90;99.90
6260;DHT22;3163;51.516;4.000;2022-12-18T08:47:54;1.10;99.90
6260;DHT22;3163;51.516;4.000;2022-12-18T08:50:20;1.10;99.90
6260;DHT22;3163;51.516;4.000;2022-12-18T08:52:45;1.20;99.90
6260;DHT22;3163;51.516;4.000;2022-12-18T08:55:11;1.60;99.90
6260;DHT22;3163;51.516;4.000;2022-12-18T08:57:37;0.60;99.90
6260;DHT22;3163;51.516;4.000;2022-12-18T09:00:04;0.80;99.90
6260;DHT22;3163;51.516;4.000;2022-12-18T09:02:30;0.40;99.90
6260;DHT22;3163;51.516;4.000;2022-12-18T09:04:55;0.40;99.90
6260;DHT22;3163;51.516;4.000;2022-12-18T09:07:21;0.90;99.90
6260;DHT22;3163;51.516;4.000;2022-12-18T09:09:46;1.00;99.90
6260;DHT22;3163;51.516;4.000;2022-12-18T09:12:12;1.00;99.90
6260;DHT22;3163;51.516;4.000;2022-12-18T09:14:37;1.00;99.90
6260;DHT22;3163;51.516;4.000;2022-12-18T09:17:03;0.50;99.90
6260;DHT22;3163;51.516;4.000;2022-12-18T09:19:29;1.40;99.90
6260;DHT22;3163;51.516;4.000;2022-12-18T09:21:55;1.60;99.90
6260;DHT22;3163;51.516;4.000;2022-12-18T09:24:23;1.40;99.90
6260;DHT22;3163;51.516;4.000;2022-12-18T09:26:52;1.10;99.90
6260;DHT22;3163;51.516;4.000;2022-12-18T09:29:21;1.00;99.90
6260;DHT22;3163;51.516;4.000;2022-12-18T09:31:51;0.80;99.90
6260;DHT22;3163;51.516;4.000;2022-12-18T09:34:18;0.10;99.90
6260;DHT22;3163;51.516;4.000;2022-12-18T09:36:46;0.50;99.90
6260;DHT22;3163;51.516;4.000;2022-12-18T09:39:12;0.70;99.90
6260;DHT22;3163;51.516;4.000;2022-12-18T09:41:56;0.80;99.90
6260;DHT22;3163;51.516;4.000;2022-12-18T09:44:32;0.70;99.90
6260;DHT22;3163;51.516;4.000;2022-12-18T09:49:46;0.60;99.90
6260;DHT22;3163;51.516;4.000;2022-12-18T09:52:33;0.80;99.90
6260;DHT22;3163;51.516;4.000;2022-12-18T09:55:19;1.10;99.90
6260;DHT22;3163;51.516;4.000;2022-12-18T09:57:51;0.90;99.90
6260;DHT22;3163;51.516;4.000;2022-12-18T10:00:22;1.30;99.90
6260;DHT22;3163;51.516;4.000;2022-12-18T10:02:50;1.50;99.90
6260;DHT22;3163;51.516;4.000;2022-12-18T10:05:23;1.40;99.90
6260;DHT22;3163;51.516;4.000;2022-12-18T10:08:03;1.00;99.90
6260;DHT22;3163;51.516;4.000;2022-12-18T10:10:48;0.40;99.90
6260;DHT22;3163;51.516;4.000;2022-12-18T10:16:09;0.60;99.90
6260;DHT22;3163;51.516;4.000;2022-12-18T10:21:10;0.90;99.90
6260;DHT22;3163;51.516;4.000;2022-12-18T10:26:41;1.30;99.90
6260;DHT22;3163;51.516;4.000;2022-12-18T10:29:14;1.70;99.90
6260;DHT22;3163;51.516;4.000;2022-12-18T10:31:40;1.40;99.90
6260;DHT22;3163;51.516;4.000;2022-12-18T10:34:13;1.20;99.90
6260;DHT22;3163;51.516;4.000;2022-12-18T10:36:39;0.90;99.90
6260;DHT22;3163;51.516;4.000;2022-12-18T10:41:42;1.00;99.90
6260;DHT22;3163;51.516;4.000;2022-12-18T10:44:23;0.70;99.90
6260;DHT22;3163;51.516;4.000;2022-12-18T10:47:03;0.50;99.90
6260;DHT22;3163;51.516;4.000;2022-12-18T10:49:31;0.90;99.90
6260;DHT22;3163;51.516;4.000;2022-12-18T10:54:58;1.70;99.90
6260;DHT22;3163;51.516;4.000;2022-12-18T10:59:56;2.10;99.90
6260;DHT22;3163;51.516;4.000;2022-12-18T11:02:36;1.80;99.90
6260;DHT22;3163;51.516;4.000;2022-12-18T11:05:04;1.50;99.90
6260;DHT22;3163;51.516;4.000;2022-12-18T11:07:50;0.90;99.90
6260;DHT22;3163;51.516;4.000;2022-12-18T11:10:19;1.00;99.90
6260;DHT22;3163;51.516;4.000;2022-12-18T11:12:45;1.00;99.90
6260;DHT22;3163;51.516;4.000;2022-12-18T11:15:25;1.00;99.90
6260;DHT22;3163;51.516;4.000;2022-12-18T11:17:52;1.00;99.90
6260;DHT22;3163;51.516;4.000;2022-12-18T11:20:34;1.10;99.90
6260;DHT22;3163;51.516;4.000;2022-12-18T11:23:01;1.10;99.90
6260;DHT22;3163;51.516;4.000;2022-12-18T11:25:28;1.10;99.90
6260;DHT22;3163;51.516;4.000;2022-12-18T11:33:00;1.60;99.90
6260;DHT22;3163;51.516;4.000;2022-12-18T11:35:50;1.10;99.90
6260;DHT22;3163;51.516;4.000;2022-12-18T11:43:50;1.20;99.90
6260;DHT22;3163;51.516;4.000;2022-12-18T11:46:24;1.60;99.90
6260;DHT22;3163;51.516;4.000;2022-12-18T11:49:03;1.40;99.90
6260;DHT22;3163;51.516;4.000;2022-12-18T11:51:41;0.90;99.90
6260;DHT22;3163;51.516;4.000;2022-12-18T11:54:14;0.90;99.90
6260;DHT22;3163;51.516;4.000;2022-12-18T12:02:35;1.30;99.90
6260;DHT22;3163;51.516;4.000;2022-12-18T12:16:10;1.80;99.90
6260;DHT22;3163;51.516;4.000;2022-12-18T12:21:37;2.20;99.90
6260;DHT22;3163;51.516;4.000;2022-12-18T12:27:28;1.90;99.90
6260;DHT22;3163;51.516;4.000;2022-12-18T12:30:13;1.20;99.90
6260;DHT22;3163;51.516;4.000;2022-12-18T12:35:44;2.40;99.90
6260;DHT22;3163;51.516;4.000;2022-12-18T12:38:32;2.20;99.90
6260;DHT22;3163;51.516;4.000;2022-12-18T12:41:02;1.90;99.90
6260;DHT22;3163;51.516;4.000;2022-12-18T12:43:44;2.30;99.90
6260;DHT22;3163;51.516;4.000;2022-12-18T12:46:15;2.40;99.90
6260;DHT22;3163;51.516;4.000;2022-12-18T12:48:51;1.80;99.90
6260;DHT22;3163;51.516;4.000;2022-12-18T12:51:37;2.70;99.90
6260;DHT22;3163;51.516;4.000;2022-12-18T12:54:08;3.20;99.90
6260;DHT22;3163;51.516;4.000;2022-12-18T12:56:43;2.80;99.90
6260;DHT22;3163;51.516;4.000;2022-12-18T13:02:02;1.60;99.90
6260;DHT22;3163;51.516;4.000;2022-12-18T13:04:49;1.90;99.90
6260;DHT22;3163;51.516;4.000;2022-12-18T13:15:38;2.50;99.90
6260;DHT22;3163;51.516;4.000;2022-12-18T13:20:41;2.30;99.90
6260;DHT22;3163;51.516;4.000;2022-12-18T13:23:26;2.30;99.90
6260;DHT22;3163;51.516;4.000;2022-12-18T13:31:00;2.20;99.90
6260;DHT22;3163;51.516;4.000;2022-12-18T13:38:39;2.40;99.90
6260;DHT22;3163;51.516;4.000;2022-12-18T13:41:24;1.90;99.90
6260;DHT22;3163;51.516;4.000;2022-12-18T13:44:20;1.50;99.90
6260;DHT22;3163;51.516;4.000;2022-12-18T13:46:50;1.30;99.90
6260;DHT22;3163;51.516;4.000;2022-12-18T13:49:38;1.00;99.90
6260;DHT22;3163;51.516;4.000;2022-12-18T13:52:21;1.90;99.90
6260;DHT22;3163;51.516;4.000;2022-12-18T13:55:13;2.20;99.90
6260;DHT22;3163;51.516;4.000;2022-12-18T13:57:40;3.50;99.90
6260;DHT22;3163;51.516;4.000;2022-12-18T14:00:25;2.70;99.90
6260;DHT22;3163;51.516;4.000;2022-12-18T14:02:51;2.30;99.90
6260;DHT22;3163;51.516;4.000;2022-12-18T14:05:36;2.80;99.90
6260;DHT22;3163;51.516;4.000;2022-12-18T14:08:09;2.00;99.90
6260;DHT22;3163;51.516;4.000;2022-12-18T14:10:43;2.70;99.90
6260;DHT22;3163;51.516;4.000;2022-12-18T14:13:11;2.40;99.90
6260;DHT22;3163;51.516;4.000;2022-12-18T14:15:43;2.90;99.90
6260;DHT22;3163;51.516;4.000;2022-12-18T14:20:34;1.80;99.90
6260;DHT22;3163;51.516;4.000;2022-12-18T14:23:00;1.50;99.90
6260;DHT22;3163;51.516;4.000;2022-12-18T14:25:27;1.80;99.90
6260;DHT22;3163;51.516;4.000;2022-12-18T14:28:14;1.20;99.90
6260;DHT22;3163;51.516;4.000;2022-12-18T14:30:42;1.80;99.90
6260;DHT22;3163;51.516;4.000;2022-12-18T14:33:12;2.60;99.90
6260;DHT22;3163;51.516;4.000;2022-12-18T14:35:43;1.70;99.90
6260;DHT22;3163;51.516;4.000;2022-12-18T14:38:34;2.70;99.90
6260;DHT22;3163;51.516;4.000;2022-12-18T14:41:01;2.50;99.90
6260;DHT22;3163;51.516;4.000;2022-12-18T14:43:31;3.10;99.90
6260;DHT22;3163;51.516;4.000;2022-12-18T14:45:59;3.10;99.90
6260;DHT22;3163;51.516;4.000;2022-12-18T14:48:40;3.00;99.90
6260;DHT22;3163;51.516;4.000;2022-12-18T14:53:40;3.00;99.90
6260;DHT22;3163;51.516;4.000;2022-12-18T14:56:17;2.80;99.90
6260;DHT22;3163;51.516;4.000;2022-12-18T15:04:35;2.20;99.90
6260;DHT22;3163;51.516;4.000;2022-12-18T15:09:34;2.50;99.90
6260;DHT22;3163;51.516;4.000;2022-12-18T15:12:01;2.60;99.90
6260;DHT22;3163;51.516;4.000;2022-12-18T15:14:31;2.30;99.90
6260;DHT22;3163;51.516;4.000;2022-12-18T15:16:59;1.50;99.90
6260;DHT22;3163;51.516;4.000;2022-12-18T15:19:42;2.00;99.90
6260;DHT22;3163;51.516;4.000;2022-12-18T15:22:28;2.30;99.90
6260;DHT22;3163;51.516;4.000;2022-12-18T15:24:56;1.80;99.90
6260;DHT22;3163;51.516;4.000;2022-12-18T15:27:34;2.30;99.90
6260;DHT22;3163;51.516;4.000;2022-12-18T15:32:39;3.50;99.90
6260;DHT22;3163;51.516;4.000;2022-12-18T15:37:37;3.20;99.90
6260;DHT22;3163;51.516;4.000;2022-12-18T15:40:05;3.20;99.90
6260;DHT22;3163;51.516;4.000;2022-12-18T15:42:30;2.90;99.90
6260;DHT22;3163;51.516;4.000;2022-12-18T15:45:15;2.70;99.90
6260;DHT22;3163;51.516;4.000;2022-12-18T15:47:40;3.40;99.90
6260;DHT22;3163;51.516;4.000;2022-12-18T15:50:09;3.40;99.90
6260;DHT22;3163;51.516;4.000;2022-12-18T15:52:43;3.40;99.90
6260;DHT22;3163;51.516;4.000;2022-12-18T15:55:14;2.90;99.90
6260;DHT22;3163;51.516;4.000;2022-12-18T15:57:59;3.10;99.90
6260;DHT22;3163;51.516;4.000;2022-12-18T16:00:25;2.60;99.90
6260;DHT22;3163;51.516;4.000;2022-12-18T16:02:51;2.90;99.90
6260;DHT22;3163;51.516;4.000;2022-12-18T16:05:18;3.00;99.90
6260;DHT22;3163;51.516;4.000;2022-12-18T16:07:45;3.40;99.90
6260;DHT22;3163;51.516;4.000;2022-12-18T16:10:11;3.50;99.90
6260;DHT22;3163;51.516;4.000;2022-12-18T16:12:37;3.00;99.90
6260;DHT22;3163;51.516;4.000;2022-12-18T16:15:05;3.50;99.90
6260;DHT22;3163;51.516;4.000;2022-12-18T16:17:31;3.30;99.90
6260;DHT22;3163;51.516;4.000;2022-12-18T16:19:56;3.50;99.90
6260;DHT22;3163;51.516;4.000;2022-12-18T16:22:24;3.20;99.90
6260;DHT22;3163;51.516;4.000;2022-12-18T16:24:51;3.00;99.90
6260;DHT22;3163;51.516;4.000;2022-12-18T16:27:17;2.80;99.90
6260;DHT22;3163;51.516;4.000;2022-12-18T16:29:44;2.60;99.90
6260;DHT22;3163;51.516;4.000;2022-12-18T16:32:14;2.60;99.90
6260;DHT22;3163;51.516;4.000;2022-12-18T16:34:40;3.00;99.90
6260;DHT22;3163;51.516;4.000;2022-12-18T16:37:08;3.10;99.90
6260;DHT22;3163;51.516;4.000;2022-12-18T16:39:34;2.90;99.90
6260;DHT22;3163;51.516;4.000;2022-12-18T16:42:13;3.20;99.90
6260;DHT22;3163;51.516;4.000;2022-12-18T16:44:41;3.00;99.90
6260;DHT22;3163;51.516;4.000;2022-12-18T16:47:08;3.30;99.90
6260;DHT22;3163;51.516;4.000;2022-12-18T16:49:33;3.30;99.90
6260;DHT22;3163;51.516;4.000;2022-12-18T16:51:59;3.30;99.90
6260;DHT22;3163;51.516;4.000;2022-12-18T16:54:24;3.40;99.90
6260;DHT22;3163;51.516;4.000;2022-12-18T16:56:51;3.30;99.90
6260;DHT22;3163;51.516;4.000;2022-12-18T16:59:17;3.10;99.90
6260;DHT22;3163;51.516;4.000;2022-12-18T17:01:42;3.00;99.90
6260;DHT22;3163;51.516;4.000;2022-12-18T17:04:08;3.10;99.90
6260;DHT22;3163;51.516;4.000;2022-12-18T17:06:39;3.10;99.90
6260;DHT22;3163;51.516;4.000;2022-12-18T17:09:08;3.20;99.90
6260;DHT22;3163;51.516;4.000;2022-12-18T17:11:34;3.00;99.90
6260;DHT22;3163;51.516;4.000;2022-12-18T17:14:22;3.00;99.90
6260;DHT22;3163;51.516;4.000;2022-12-18T17:16:47;3.00;99.90
6260;DHT22;3163;51.516;4.000;2022-12-18T17:19:14;2.90;99.90
6260;DHT22;3163;51.516;4.000;2022-12-18T17:21:42;3.30;99.90
6260;DHT22;3163;51.516;4.000;2022-12-18T17:24:08;3.30;99.90
6260;DHT22;3163;51.516;4.000;2022-12-18T17:26:34;3.20;99.90
6260;DHT22;3163;51.516;4.000;2022-12-18T17:28:59;3.20;99.90
6260;DHT22;3163;51.516;4.000;2022-12-18T17:31:28;3.40;99.90
6260;DHT22;3163;51.516;4.000;2022-12-18T17:33:55;3.30;99.90
6260;DHT22;3163;51.516;4.000;2022-12-18T17:36:21;3.20;99.90
6260;DHT22;3163;51.516;4.000;2022-12-18T17:38:53;3.20;99.90
6260;DHT22;3163;51.516;4.000;2022-12-18T17:41:19;3.20;99.90
6260;DHT22;3163;51.516;4.000;2022-12-18T17:43:57;3.00;99.90
6260;DHT22;3163;51.516;4.000;2022-12-18T17:46:23;3.10;99.90
6260;DHT22;3163;51.516;4.000;2022-12-18T17:48:50;3.10;99.90
6260;DHT22;3163;51.516;4.000;2022-12-18T17:51:18;3.00;99.90
6260;DHT22;3163;51.516;4.000;2022-12-18T17:53:44;2.70;99.90
6260;DHT22;3163;51.516;4.000;2022-12-18T17:56:15;3.00;99.90
6260;DHT22;3163;51.516;4.000;2022-12-18T17:58:42;3.00;99.90
6260;DHT22;3163;51.516;4.000;2022-12-18T18:01:08;3.00;99.90
6260;DHT22;3163;51.516;4.000;2022-12-18T18:03:33;3.20;99.90
6260;DHT22;3163;51.516;4.000;2022-12-18T18:06:03;2.90;99.90
6260;DHT22;3163;51.516;4.000;2022-12-18T18:08:29;3.00;99.90
6260;DHT22;3163;51.516;4.000;2022-12-18T18:10:56;2.80;99.90
6260;DHT22;3163;51.516;4.000;2022-12-18T18:13:42;3.00;99.90
6260;DHT22;3163;51.516;4.000;2022-12-18T18:16:33;3.20;99.90
6260;DHT22;3163;51.516;4.000;2022-12-18T18:19:01;3.10;99.90
6260;DHT22;3163;51.516;4.000;2022-12-18T18:21:29;3.10;99.90
6260;DHT22;3163;51.516;4.000;2022-12-18T18:23:57;3.00;99.90
6260;DHT22;3163;51.516;4.000;2022-12-18T18:26:23;3.00;99.90
6260;DHT22;3163;51.516;4.000;2022-12-18T18:28:52;3.20;99.90
6260;DHT22;3163;51.516;4.000;2022-12-18T18:31:18;3.10;99.90
6260;DHT22;3163;51.516;4.000;2022-12-18T18:33:44;3.20;99.90
6260;DHT22;3163;51.516;4.000;2022-12-18T18:36:10;3.20;99.90